createdAt,value
2022-09-16T00:00:52.112Z,26.32
2022-09-16T00:03:20.099Z,26.33
2022-09-16T00:05:50.233Z,26.25
2022-09-16T00:08:18.403Z,26.29
2022-09-16T00:10:45.783Z,26.32
2022-09-16T00:13:14.278Z,26.31
2022-09-16T00:15:46.382Z,26.20
2022-09-16T00:18:13.606Z,26.22
2022-09-16T00:20:45.786Z,26.11
2022-09-16T00:23:13.042Z,26.08
2022-09-16T00:25:40.646Z,25.98
2022-09-16T00:28:07.882Z,25.91
2022-09-16T00:30:35.252Z,25.97
2022-09-16T00:33:02.413Z,26.04
2022-09-16T00:35:29.573Z,26.15
2022-09-16T00:37:56.821Z,26.28
2022-09-16T00:40:24.295Z,26.26
2022-09-16T00:42:51.437Z,26.26
2022-09-16T00:45:24.092Z,26.17
2022-09-16T00:47:56.399Z,26.14
2022-09-16T00:50:31.061Z,26.21
2022-09-16T00:53:00.203Z,26.19
2022-09-16T00:55:33.252Z,26.02
2022-09-16T00:58:09.873Z,25.99
2022-09-16T01:00:38.435Z,25.77
2022-09-16T01:03:06.599Z,25.75
2022-09-16T01:05:34.417Z,25.72
2022-09-16T01:08:01.792Z,25.83
2022-09-16T01:10:28.976Z,25.88
2022-09-16T01:13:04.412Z,25.89
2022-09-16T01:15:50.835Z,25.86
2022-09-16T01:18:25.553Z,25.86
2022-09-16T01:21:17.468Z,25.94
2022-09-16T01:23:56.666Z,25.91
2022-09-16T01:27:04.128Z,25.76
2022-09-16T01:29:53.307Z,25.69
2022-09-16T01:32:38.904Z,25.72
2022-09-16T01:35:53.781Z,25.75
2022-09-16T01:38:45.223Z,25.78
2022-09-16T01:41:49.885Z,25.79
2022-09-16T01:44:43.345Z,25.87
2022-09-16T01:47:45.977Z,25.88
2022-09-16T01:50:32.424Z,25.90
2022-09-16T01:53:19.160Z,25.84
2022-09-16T01:55:53.750Z,25.50
2022-09-16T01:58:30.536Z,25.43
2022-09-16T02:01:05.671Z,25.58
2022-09-16T02:03:36.950Z,25.64
2022-09-16T02:06:09.985Z,25.67
2022-09-16T02:09:07.421Z,25.65
2022-09-16T02:11:37.229Z,25.63
2022-09-16T02:14:09.895Z,25.74
2022-09-16T02:16:45.988Z,25.79
2022-09-16T02:19:18.397Z,25.82
2022-09-16T02:21:47.567Z,25.81
2022-09-16T02:24:18.164Z,25.89
2022-09-16T02:26:50.791Z,25.65
2022-09-16T02:29:22.753Z,25.74
2022-09-16T02:31:55.790Z,25.79
2022-09-16T02:34:28.298Z,25.92
2022-09-16T02:37:01.433Z,25.99
2022-09-16T02:39:33.962Z,26.05
2022-09-16T02:42:02.005Z,25.77
2022-09-16T02:44:29.786Z,25.45
2022-09-16T02:47:08.771Z,25.10
2022-09-16T02:49:51.416Z,24.98
2022-09-16T02:52:24.215Z,24.85
2022-09-16T02:55:11.751Z,24.76
2022-09-16T02:57:39.041Z,24.55
2022-09-16T03:00:06.956Z,24.54
2022-09-16T03:02:35.337Z,24.51
2022-09-16T03:05:03.654Z,24.64
2022-09-16T03:07:31.072Z,24.86
2022-09-16T03:09:58.343Z,25.03
2022-09-16T03:12:45.752Z,25.18
2022-09-16T03:15:19.895Z,25.06
2022-09-16T03:17:58.893Z,24.94
2022-09-16T03:20:52.980Z,24.97
2022-09-16T03:23:52.278Z,25.13
2022-09-16T03:26:41.340Z,25.05
2022-09-16T03:29:45.656Z,25.03
2022-09-16T03:32:22.043Z,25.03
2022-09-16T03:34:56.390Z,24.99
2022-09-16T03:37:25.361Z,24.89
2022-09-16T03:39:55.989Z,24.83
2022-09-16T03:42:23.097Z,24.70
2022-09-16T03:44:50.481Z,24.85
2022-09-16T03:47:18.252Z,24.81
2022-09-16T03:49:45.391Z,24.84
2022-09-16T03:52:12.743Z,24.94
2022-09-16T03:54:39.964Z,24.85
2022-09-16T03:57:07.208Z,24.90
2022-09-16T03:59:34.446Z,24.98
2022-09-16T04:02:01.610Z,25.05
2022-09-16T04:04:28.852Z,24.99
2022-09-16T04:06:56.542Z,25.13
2022-09-16T04:09:23.716Z,25.14
2022-09-16T04:11:50.965Z,25.30
2022-09-16T04:14:18.333Z,25.41
2022-09-16T04:16:45.595Z,25.45
2022-09-16T04:19:13.873Z,25.54
2022-09-16T04:21:42.394Z,25.56
2022-09-16T04:24:12.858Z,25.55
2022-09-16T04:26:41.714Z,25.61
2022-09-16T04:29:08.947Z,25.58
2022-09-16T04:31:36.204Z,25.51
2022-09-16T04:34:04.611Z,25.50
2022-09-16T04:36:32.706Z,25.56
2022-09-16T04:38:59.823Z,25.53
2022-09-16T04:41:27.709Z,25.64
2022-09-16T04:43:57.357Z,25.68
2022-09-16T04:46:26.342Z,25.40
2022-09-16T04:48:54.616Z,25.58
2022-09-16T04:51:23.017Z,25.69
2022-09-16T04:53:50.633Z,25.79
2022-09-16T04:56:20.278Z,25.87
2022-09-16T04:58:50.036Z,25.89
2022-09-16T05:01:19.973Z,25.91
2022-09-16T05:03:49.754Z,25.96
2022-09-16T05:06:34.344Z,25.94
2022-09-16T05:09:01.808Z,25.96
2022-09-16T05:11:31.710Z,25.97
2022-09-16T05:14:00.157Z,26.06
2022-09-16T05:16:28.526Z,26.07
2022-09-16T05:19:00.720Z,25.95
2022-09-16T05:21:28.778Z,25.96
2022-09-16T05:24:00.669Z,25.89
2022-09-16T05:26:29.604Z,25.67
2022-09-16T05:28:56.944Z,25.63
2022-09-16T05:31:30.684Z,25.64
2022-09-16T05:34:00.682Z,25.67
2022-09-16T05:36:30.003Z,25.57
2022-09-16T05:39:22.160Z,25.65
2022-09-16T05:41:45.988Z,25.64
2022-09-16T05:44:13.471Z,25.69
2022-09-16T05:46:41.491Z,25.68
2022-09-16T05:49:09.561Z,25.71
2022-09-16T05:51:38.606Z,25.77
2022-09-16T05:54:05.922Z,25.86
2022-09-16T05:56:33.397Z,25.78
2022-09-16T05:59:01.272Z,25.83
2022-09-16T06:01:31.827Z,25.81
2022-09-16T06:04:02.377Z,25.77
2022-09-16T06:06:34.984Z,25.74
2022-09-16T06:09:10.125Z,25.83
2022-09-16T06:11:42.313Z,25.73
2022-09-16T06:14:11.159Z,25.75
2022-09-16T06:16:38.794Z,25.80
2022-09-16T06:19:10.596Z,25.86
2022-09-16T06:21:38.633Z,25.88
2022-09-16T06:24:10.268Z,25.96
2022-09-16T06:26:41.444Z,26.09
2022-09-16T06:29:09.753Z,26.11
2022-09-16T06:31:38.067Z,26.19
2022-09-16T06:34:06.469Z,26.24
2022-09-16T06:36:38.522Z,26.11
2022-09-16T06:39:07.708Z,26.17
2022-09-16T06:41:35.264Z,26.26
2022-09-16T06:44:02.650Z,26.28
2022-09-16T06:46:30.462Z,26.27
2022-09-16T06:49:02.809Z,26.30
2022-09-16T06:51:32.639Z,26.37
2022-09-16T06:54:02.412Z,26.43
2022-09-16T06:56:30.289Z,26.47
2022-09-16T06:58:57.687Z,26.53
2022-09-16T07:01:30.569Z,26.58
2022-09-16T07:04:10.597Z,26.55
2022-09-16T07:07:07.635Z,26.58
2022-09-16T07:09:24.996Z,26.68
2022-09-16T07:11:52.076Z,26.71
2022-09-16T07:14:19.518Z,26.77
2022-09-16T07:16:46.885Z,26.86
2022-09-16T07:19:14.135Z,26.98
2022-09-16T07:21:41.849Z,27.02
2022-09-16T07:24:11.359Z,27.08
2022-09-16T07:26:40.105Z,26.92
2022-09-16T07:29:10.823Z,27.06
2022-09-16T07:31:38.220Z,27.18
2022-09-16T07:34:07.740Z,26.92
2022-09-16T07:36:40.906Z,27.07
2022-09-16T07:39:08.917Z,27.05
2022-09-16T07:41:38.436Z,27.16
2022-09-16T07:44:07.579Z,27.23
2022-09-16T07:46:36.786Z,27.31
2022-09-16T07:49:07.225Z,27.40
2022-09-16T07:51:34.991Z,27.42
2022-09-16T07:54:05.858Z,27.55
2022-09-16T07:56:36.042Z,27.62
2022-09-16T07:59:05.444Z,27.60
2022-09-16T08:01:33.438Z,27.48
2022-09-16T08:04:01.006Z,27.44
2022-09-16T08:06:30.362Z,27.38
2022-09-16T08:09:10.177Z,27.44
2022-09-16T08:11:47.123Z,27.49
2022-09-16T08:14:14.261Z,27.40
2022-09-16T08:16:41.519Z,27.49
2022-09-16T08:19:09.614Z,27.54
2022-09-16T08:21:36.628Z,27.59
2022-09-16T08:24:03.901Z,27.66
2022-09-16T08:26:31.044Z,27.64
2022-09-16T08:29:08.286Z,27.50
2022-09-16T08:31:37.345Z,27.61
2022-09-16T08:34:05.143Z,27.68
2022-09-16T08:36:33.940Z,27.69
2022-09-16T08:39:01.598Z,27.60
2022-09-16T08:41:43.987Z,27.55
2022-09-16T08:44:46.075Z,27.70
2022-09-16T08:47:19.142Z,27.78
2022-09-16T08:49:50.564Z,27.82
2022-09-16T08:52:33.055Z,27.81
2022-09-16T08:55:03.201Z,27.86
2022-09-16T08:57:37.210Z,27.90
2022-09-16T09:00:22.557Z,28.00
2022-09-16T09:02:55.922Z,28.07
2022-09-16T09:05:41.485Z,28.06
2022-09-16T09:08:23.468Z,28.08
2022-09-16T09:11:02.706Z,27.99
2022-09-16T09:13:45.108Z,28.07
2022-09-16T09:16:31.364Z,28.03
2022-09-16T09:19:10.772Z,28.11
2022-09-16T09:22:05.705Z,28.19
2022-09-16T09:24:56.608Z,28.23
2022-09-16T09:27:33.697Z,28.22
2022-09-16T09:30:09.000Z,28.24
2022-09-16T09:32:49.511Z,28.40
2022-09-16T09:35:49.884Z,28.48
2022-09-16T09:38:45.032Z,28.61
2022-09-16T09:41:24.033Z,28.78
2022-09-16T09:44:07.228Z,28.79
2022-09-16T09:46:40.565Z,28.76
2022-09-16T09:49:13.888Z,28.87
2022-09-16T09:51:58.360Z,28.91
2022-09-16T09:54:25.424Z,29.00
2022-09-16T09:57:02.315Z,28.95
2022-09-16T09:59:50.547Z,28.99
2022-09-16T10:02:21.458Z,29.00
2022-09-16T10:04:49.459Z,29.09
2022-09-16T10:07:21.153Z,29.08
2022-09-16T10:10:24.553Z,29.19
2022-09-16T10:12:52.158Z,29.20
2022-09-16T10:15:23.896Z,29.28
2022-09-16T10:17:52.900Z,29.28
2022-09-16T10:20:38.283Z,29.40
2022-09-16T10:23:10.546Z,29.45
2022-09-16T10:25:38.256Z,29.55
2022-09-16T10:28:19.129Z,29.63
2022-09-16T10:30:52.720Z,29.64
2022-09-16T10:33:34.753Z,29.68
2022-09-16T10:36:20.443Z,29.68
2022-09-16T10:38:53.227Z,29.71
2022-09-16T10:41:24.512Z,29.77
2022-09-16T10:43:59.215Z,29.81
2022-09-16T10:46:27.929Z,29.81
2022-09-16T10:49:00.188Z,29.92
2022-09-16T10:51:29.962Z,30.02
2022-09-16T10:54:00.003Z,30.20
2022-09-16T10:56:30.467Z,30.30
2022-09-16T10:59:12.080Z,30.32
2022-09-16T11:02:34.917Z,30.18
2022-09-16T11:05:26.676Z,30.24
2022-09-16T11:08:30.778Z,30.27
2022-09-16T11:11:11.213Z,30.25
2022-09-16T11:14:04.984Z,30.18
2022-09-16T11:16:59.930Z,29.97
2022-09-16T11:20:09.412Z,29.86
2022-09-16T11:23:13.773Z,29.81
2022-09-16T11:25:46.647Z,29.70
2022-09-16T11:28:45.028Z,29.72
2022-09-16T11:31:27.917Z,29.61
2022-09-16T11:34:20.782Z,29.56
2022-09-16T11:37:00.160Z,29.50
2022-09-16T11:39:34.500Z,29.60
2022-09-16T11:42:10.508Z,29.65
2022-09-16T11:44:48.151Z,29.65
2022-09-16T11:48:09.179Z,29.68
2022-09-16T11:51:02.633Z,29.61
2022-09-16T11:54:09.729Z,29.50
2022-09-16T11:56:46.914Z,29.44
2022-09-16T11:59:33.224Z,29.52
2022-09-16T12:02:28.699Z,29.46
2022-09-16T12:05:07.281Z,29.50
2022-09-16T12:07:42.593Z,29.51
2022-09-16T12:10:32.503Z,29.36
2022-09-16T12:13:06.036Z,29.32
2022-09-16T12:15:40.734Z,29.25
2022-09-16T12:18:18.378Z,29.25
2022-09-16T12:21:14.070Z,29.15
2022-09-16T12:23:46.022Z,29.18
2022-09-16T12:26:28.497Z,29.23
2022-09-16T12:29:10.069Z,29.20
2022-09-16T12:31:49.824Z,29.23
2022-09-16T12:34:23.901Z,29.23
2022-09-16T12:37:00.946Z,29.19
2022-09-16T12:39:28.783Z,29.13
2022-09-16T12:42:54.148Z,29.11
2022-09-16T12:45:33.682Z,29.00
2022-09-16T12:48:25.709Z,28.98
2022-09-16T12:51:13.786Z,28.88
2022-09-16T12:54:05.538Z,28.90
2022-09-16T12:57:08.450Z,28.81
2022-09-16T12:59:57.429Z,28.74
2022-09-16T13:02:33.928Z,28.65
2022-09-16T13:05:23.963Z,28.58
2022-09-16T13:07:54.551Z,28.57
2022-09-16T13:10:54.078Z,28.53
2022-09-16T13:13:32.628Z,28.58
2022-09-16T13:16:02.161Z,28.70
2022-09-16T13:18:49.275Z,28.76
2022-09-16T13:21:27.837Z,28.83
2022-09-16T13:24:06.492Z,28.77
2022-09-16T13:26:42.224Z,28.84
2022-09-16T13:29:25.965Z,28.83
2022-09-16T13:31:53.352Z,28.88
2022-09-16T13:34:21.942Z,28.96
2022-09-16T13:36:49.420Z,28.97
2022-09-16T13:39:30.367Z,28.82
2022-09-16T13:41:57.652Z,28.75
2022-09-16T13:44:40.399Z,28.79
2022-09-16T13:47:10.498Z,28.63
2022-09-16T13:49:52.739Z,28.57
2022-09-16T13:52:40.633Z,28.54
2022-09-16T13:55:21.171Z,28.53
2022-09-16T13:58:10.603Z,28.48
2022-09-16T14:01:09.078Z,28.50
2022-09-16T14:03:54.196Z,28.51
2022-09-16T14:06:39.842Z,28.54
2022-09-16T14:09:33.635Z,28.48
2022-09-16T14:12:07.739Z,28.33
2022-09-16T14:14:46.776Z,28.32
2022-09-16T14:17:28.394Z,28.25
2022-09-16T14:20:00.809Z,28.16
2022-09-16T14:22:28.840Z,28.11
2022-09-16T14:25:05.955Z,28.01
2022-09-16T14:27:43.684Z,27.98
2022-09-16T14:30:19.251Z,27.99
2022-09-16T14:32:48.488Z,27.82
2022-09-16T14:35:27.090Z,27.63
2022-09-16T14:37:59.140Z,27.69
2022-09-16T14:40:28.064Z,27.68
2022-09-16T14:42:57.967Z,27.60
2022-09-16T14:45:25.155Z,27.58
2022-09-16T14:47:55.613Z,27.49
2022-09-16T14:50:27.095Z,27.37
2022-09-16T14:53:00.307Z,27.28
2022-09-16T14:55:31.164Z,27.23
2022-09-16T14:58:00.220Z,27.14
2022-09-16T15:00:42.461Z,27.21
2022-09-16T15:03:48.160Z,27.19
2022-09-16T15:06:19.812Z,27.20
2022-09-16T15:08:53.236Z,27.26
2022-09-16T15:11:46.912Z,27.26
2022-09-16T15:14:13.554Z,27.38
2022-09-16T15:16:47.127Z,27.37
2022-09-16T15:19:21.727Z,27.41
2022-09-16T15:21:50.405Z,27.41
2022-09-16T15:24:26.067Z,27.57
2022-09-16T15:26:54.051Z,27.54
2022-09-16T15:29:24.185Z,27.61
2022-09-16T15:31:51.987Z,27.61
2022-09-16T15:34:19.040Z,27.62
2022-09-16T15:36:52.035Z,27.61
2022-09-16T15:39:24.297Z,27.61
2022-09-16T15:42:03.549Z,27.67
2022-09-16T15:44:35.137Z,27.68
2022-09-16T15:47:06.516Z,27.63
2022-09-16T15:49:39.534Z,27.56
2022-09-16T15:52:10.112Z,27.55
2022-09-16T15:54:52.660Z,27.43
2022-09-16T15:57:34.245Z,27.55
2022-09-16T16:00:12.199Z,27.57
2022-09-16T16:02:57.043Z,27.53
2022-09-16T16:05:28.239Z,27.61
2022-09-16T16:08:00.877Z,27.63
2022-09-16T16:10:31.852Z,27.58
2022-09-16T16:13:01.375Z,27.38
2022-09-16T16:15:40.087Z,27.24
2022-09-16T16:18:08.921Z,27.24
2022-09-16T16:20:38.181Z,27.22
2022-09-16T16:23:05.361Z,27.26
2022-09-16T16:25:32.665Z,27.18
2022-09-16T16:27:59.883Z,26.98
2022-09-16T16:30:27.085Z,26.89
2022-09-16T16:32:54.174Z,26.88
2022-09-16T16:35:21.322Z,26.95
2022-09-16T16:37:48.427Z,27.01
2022-09-16T16:40:15.970Z,27.07
2022-09-16T16:42:44.392Z,27.22
2022-09-16T16:45:13.483Z,27.28
2022-09-16T16:47:41.660Z,27.33
2022-09-16T16:50:09.806Z,27.25
2022-09-16T16:52:37.167Z,27.27
2022-09-16T16:55:05.787Z,27.30
2022-09-16T16:57:33.096Z,27.35
2022-09-16T17:00:00.192Z,27.29
2022-09-16T17:02:27.554Z,27.34
2022-09-16T17:04:54.744Z,27.30
2022-09-16T17:07:26.666Z,27.29
2022-09-16T17:09:55.682Z,27.36
2022-09-16T17:12:22.959Z,27.46
2022-09-16T17:14:50.219Z,27.43
2022-09-16T17:17:17.265Z,27.39
2022-09-16T17:19:44.416Z,27.38
2022-09-16T17:22:11.430Z,27.42
2022-09-16T17:24:38.515Z,27.44
2022-09-16T17:27:05.744Z,27.46
2022-09-16T17:29:32.819Z,27.36
2022-09-16T17:32:02.593Z,27.32
2022-09-16T17:34:30.264Z,27.25
2022-09-16T17:36:58.494Z,27.21
2022-09-16T17:39:25.952Z,27.15
2022-09-16T17:41:54.634Z,27.11
2022-09-16T17:44:22.175Z,27.13
2022-09-16T17:46:49.336Z,27.13
2022-09-16T17:49:19.195Z,27.20
2022-09-16T17:51:46.654Z,27.24
2022-09-16T17:54:14.652Z,27.06
2022-09-16T17:56:45.010Z,27.08
2022-09-16T17:59:15.365Z,27.07
2022-09-16T18:01:42.524Z,27.00
2022-09-16T18:04:09.987Z,26.92
2022-09-16T18:06:45.762Z,26.74
2022-09-16T18:09:14.118Z,26.78
2022-09-16T18:11:41.433Z,26.62
2022-09-16T18:14:11.811Z,26.57
2022-09-16T18:16:39.942Z,26.48
2022-09-16T18:19:07.769Z,26.40
2022-09-16T18:21:36.950Z,26.25
2022-09-16T18:24:05.806Z,26.28
2022-09-16T18:26:33.101Z,26.38
2022-09-16T18:29:11.233Z,26.45
2022-09-16T18:31:44.636Z,26.41
2022-09-16T18:34:13.484Z,26.46
2022-09-16T18:36:41.239Z,26.27
2022-09-16T18:39:14.147Z,26.19
2022-09-16T18:41:42.665Z,26.26
2022-09-16T18:44:23.903Z,26.07
2022-09-16T18:46:52.249Z,26.00
2022-09-16T18:49:22.189Z,25.84
2022-09-16T18:51:52.141Z,25.91
2022-09-16T18:54:25.078Z,26.04
2022-09-16T18:56:53.124Z,26.02
2022-09-16T18:59:23.713Z,26.13
2022-09-16T19:01:57.558Z,26.10
2022-09-16T19:04:29.977Z,25.93
2022-09-16T19:07:05.983Z,26.02
2022-09-16T19:09:36.178Z,26.10
2022-09-16T19:12:04.176Z,26.22
2022-09-16T19:14:31.424Z,26.27
2022-09-16T19:16:58.860Z,26.17
2022-09-16T19:19:26.063Z,26.29
2022-09-16T19:21:53.556Z,26.40
2022-09-16T19:24:23.221Z,26.33
2022-09-16T19:26:53.493Z,26.15
2022-09-16T19:29:21.412Z,26.16
2022-09-16T19:31:51.882Z,26.29
2022-09-16T19:34:20.112Z,26.29
2022-09-16T19:36:47.488Z,26.31
2022-09-16T19:39:14.681Z,26.40
2022-09-16T19:41:42.938Z,26.48
2022-09-16T19:44:13.040Z,26.54
2022-09-16T19:46:42.953Z,26.56
2022-09-16T19:49:15.284Z,26.62
2022-09-16T19:51:43.117Z,26.52
2022-09-16T19:54:10.389Z,26.56
2022-09-16T19:56:37.975Z,26.52
2022-09-16T19:59:05.273Z,26.56
2022-09-16T20:01:36.087Z,26.63
2022-09-16T20:04:07.934Z,26.64
2022-09-16T20:06:38.939Z,26.63
2022-09-16T20:09:12.359Z,26.69
2022-09-16T20:11:44.544Z,26.70
2022-09-16T20:14:15.811Z,26.70
2022-09-16T20:16:44.049Z,26.47
2022-09-16T20:19:14.488Z,26.54
2022-09-16T20:21:42.449Z,26.56
2022-09-16T20:24:15.477Z,26.30
2022-09-16T20:26:42.735Z,26.32
2022-09-16T20:29:09.890Z,26.22
2022-09-16T20:31:37.302Z,25.85
2022-09-16T20:34:05.220Z,25.92
2022-09-16T20:36:37.103Z,25.68
2022-09-16T20:39:05.614Z,25.82
2022-09-16T20:41:34.450Z,25.93
2022-09-16T20:44:02.303Z,25.62
2022-09-16T20:46:31.770Z,25.35
2022-09-16T20:49:01.061Z,25.08
2022-09-16T20:51:31.568Z,25.35
2022-09-16T20:54:07.378Z,25.54
2022-09-16T20:56:38.318Z,25.64
2022-09-16T20:59:11.627Z,25.45
2022-09-16T21:01:40.654Z,25.45
2022-09-16T21:04:19.368Z,25.25
2022-09-16T21:06:46.661Z,25.43
2022-09-16T21:09:15.426Z,25.62
2022-09-16T21:11:45.868Z,25.78
2022-09-16T21:14:16.267Z,25.87
2022-09-16T21:16:45.540Z,25.93
2022-09-16T21:19:13.590Z,25.96
2022-09-16T21:21:44.536Z,25.95
2022-09-16T21:24:13.344Z,26.01
2022-09-16T21:26:41.423Z,26.01
2022-09-16T21:29:11.634Z,26.05
2022-09-16T21:31:40.688Z,26.09
2022-09-16T21:34:17.035Z,26.07
2022-09-16T21:36:45.233Z,26.13
2022-09-16T21:39:14.620Z,26.18
2022-09-16T21:41:43.219Z,26.20
2022-09-16T21:44:11.284Z,26.16
2022-09-16T21:46:41.897Z,25.56
2022-09-16T21:49:25.617Z,25.45
2022-09-16T21:51:55.331Z,25.58
2022-09-16T21:54:23.871Z,25.70
2022-09-16T21:56:52.073Z,25.80
2022-09-16T21:59:20.532Z,25.86
2022-09-16T22:01:50.119Z,25.82
2022-09-16T22:04:23.223Z,25.84
2022-09-16T22:06:52.860Z,25.86
2022-09-16T22:09:19.992Z,25.82
2022-09-16T22:11:47.172Z,25.87
2022-09-16T22:14:14.383Z,25.39
2022-09-16T22:16:41.610Z,25.35
2022-09-16T22:19:12.468Z,25.49
2022-09-16T22:21:42.528Z,25.64
2022-09-16T22:24:10.250Z,25.57
2022-09-16T22:26:37.533Z,25.56
2022-09-16T22:29:06.383Z,25.63
2022-09-16T22:31:34.179Z,25.69
2022-09-16T22:34:02.126Z,25.79
2022-09-16T22:36:34.022Z,25.85
2022-09-16T22:39:07.880Z,25.85
2022-09-16T22:41:35.465Z,25.90
2022-09-16T22:44:02.899Z,25.77
2022-09-16T22:46:33.137Z,25.48
2022-09-16T22:49:00.630Z,25.53
2022-09-16T22:51:29.217Z,25.60
2022-09-16T22:53:56.651Z,25.36
2022-09-16T22:56:32.075Z,25.46
2022-09-16T22:59:02.390Z,25.39
2022-09-16T23:01:35.761Z,25.46
2022-09-16T23:04:04.527Z,25.57
2022-09-16T23:06:33.511Z,25.61
2022-09-16T23:09:00.998Z,25.64
2022-09-16T23:11:31.582Z,25.45
2022-09-16T23:13:59.552Z,25.50
2022-09-16T23:16:30.197Z,25.57
2022-09-16T23:18:59.940Z,25.24
2022-09-16T23:21:27.560Z,25.31
2022-09-16T23:23:58.931Z,25.45
2022-09-16T23:26:29.931Z,25.48
2022-09-16T23:28:59.080Z,25.14
2022-09-16T23:31:28.896Z,25.27
2022-09-16T23:33:57.166Z,25.35
2022-09-16T23:36:26.240Z,25.36
2022-09-16T23:38:54.076Z,25.35
2022-09-16T23:41:23.839Z,25.42
2022-09-16T23:43:51.050Z,25.45
2022-09-16T23:46:21.017Z,25.47
2022-09-16T23:48:48.892Z,25.49
2022-09-16T23:51:16.070Z,25.51
2022-09-16T23:53:43.179Z,25.51
2022-09-16T23:56:12.300Z,25.61
2022-09-16T23:58:40.851Z,25.58
